Rhodanus — PGBC — position and weather

sailwx.info

Track history (hours):
 
Tides and Currents Weather Stations Pressure Air Temp Water Temp Dewpoint Dewpoint Depression Visibility Wind Speed Wind Dir Waves Ship Positions

Rhodanus

Last reported at 2016-Jun-26 02:34 UTC. Time now 2016-Jun-26 02:55 UTC.
Position N 43°18' E 009°57'.

Length 89 m; draft 4.4 m.

Type: Ship. MMSI: 245848000.

Date/timePositionNaut miles runAvg speedWind from/ knotsBaromVisibWave heightAir tempDewpointWater temp
2016-Jun-26 02:34N 43°18' E 009°57'7 7.2
2016-Jun-26 01:34N 43°17' E 009°47'8 7.5
2016-Jun-26 00:33N 43°17' E 009°37'7 7.2
2016-Jun-25 23:33N 43°16' E 009°27'7 7.5
2016-Jun-25 22:34N 43°14' E 009°17'17 7.7
2016-Jun-25 20:24N 43°12' E 008°54'6 7.7
2016-Jun-25 19:34N 43°11' E 008°46'9 7.2
2016-Jun-25 18:20N 43°09' E 008°34'5 7.1
2016-Jun-25 17:33N 43°08' E 008°26'7 7.4
2016-Jun-25 16:34N 43°06' E 008°16'9 7.9
2016-Jun-25 15:28N 43°05' E 008°05'8 8.2
2016-Jun-25 14:34N 43°03' E 007°55'8 8.2
2016-Jun-25 13:32N 43°02' E 007°43'8 7.9
2016-Jun-25 12:34N 43°01' E 007°33'8 7.6
2016-Jun-25 11:34N 42°59' E 007°23'106 6.6
2016-Jun-24 19:33N 43°19' E 005°00'11 4.3
2016-Jun-24 17:06N 43°23' E 004°47'20 2.5
2016-Jun-24 09:14N 43°42' E 004°37'0 0.0
2016-Jun-24 02:22N 43°42' E 004°37'0 0.0
2016-Jun-24 00:19N 43°42' E 004°37'4 0.2
2016-Jun-23 05:34N 43°38' E 004°37'2 2.2
2016-Jun-23 04:33N 43°36' E 004°39'15 3.4
2016-Jun-23 00:16N 43°23' E 004°48'6 5.9
2016-Jun-22 23:10N 43°22' E 004°57'  
2016-Jun-19 21:26N 38°41' E 015°15'6 7.3
2016-Jun-19 20:33N 38°37' E 015°21'7 7.3
2016-Jun-19 19:33N 38°31' E 015°27'8 7.7
2016-Jun-19 18:33N 38°25' E 015°33'7 7.3
2016-Jun-19 17:33N 38°20' E 015°40'5 5.0
2016-Jun-19 16:34N 38°15' E 015°39'7 7.2
2016-Jun-19 15:34N 38°08' E 015°37'6 6.1
2016-Jun-19 14:33N 38°02' E 015°35'7 6.9
2016-Jun-19 13:33N 37°55' E 015°37'7 7.1
2016-Jun-19 12:34N 37°51' E 015°45'8 7.5
2016-Jun-19 11:33N 37°50' E 015°55'  
Track history (hours):
 
Tides and Currents Weather Stations Pressure Air Temp Water Temp Dewpoint Dewpoint Depression Visibility Wind Speed Wind Dir Waves Ship Positions

Rhodanus

Last reported at 2016-Jun-26 02:34 UTC. Time now 2016-Jun-26 02:55 UTC.
Position N 43°18' E 009°57'.

Length 89 m; draft 4.4 m.

Type: Ship. MMSI: 245848000.

Date/timePositionNaut miles runAvg speedWind from/ knotsBaromVisibWave heightAir tempDewpointWater temp
2016-Jun-26 02:34N 43°18' E 009°57'7 7.2
2016-Jun-26 01:34N 43°17' E 009°47'8 7.5
2016-Jun-26 00:33N 43°17' E 009°37'7 7.2
2016-Jun-25 23:33N 43°16' E 009°27'7 7.5
2016-Jun-25 22:34N 43°14' E 009°17'17 7.7
2016-Jun-25 20:24N 43°12' E 008°54'6 7.7
2016-Jun-25 19:34N 43°11' E 008°46'9 7.2
2016-Jun-25 18:20N 43°09' E 008°34'5 7.1
2016-Jun-25 17:33N 43°08' E 008°26'7 7.4
2016-Jun-25 16:34N 43°06' E 008°16'9 7.9
2016-Jun-25 15:28N 43°05' E 008°05'8 8.2
2016-Jun-25 14:34N 43°03' E 007°55'8 8.2
2016-Jun-25 13:32N 43°02' E 007°43'8 7.9
2016-Jun-25 12:34N 43°01' E 007°33'8 7.6
2016-Jun-25 11:34N 42°59' E 007°23'106 6.6
2016-Jun-24 19:33N 43°19' E 005°00'11 4.3
2016-Jun-24 17:06N 43°23' E 004°47'20 2.5
2016-Jun-24 09:14N 43°42' E 004°37'0 0.0
2016-Jun-24 02:22N 43°42' E 004°37'0 0.0
2016-Jun-24 00:19N 43°42' E 004°37'4 0.2
2016-Jun-23 05:34N 43°38' E 004°37'2 2.2
2016-Jun-23 04:33N 43°36' E 004°39'15 3.4
2016-Jun-23 00:16N 43°23' E 004°48'6 5.9
2016-Jun-22 23:10N 43°22' E 004°57'  
2016-Jun-19 21:26N 38°41' E 015°15'6 7.3
2016-Jun-19 20:33N 38°37' E 015°21'7 7.3
2016-Jun-19 19:33N 38°31' E 015°27'8 7.7
2016-Jun-19 18:33N 38°25' E 015°33'7 7.3
2016-Jun-19 17:33N 38°20' E 015°40'5 5.0
2016-Jun-19 16:34N 38°15' E 015°39'7 7.2
2016-Jun-19 15:34N 38°08' E 015°37'6 6.1
2016-Jun-19 14:33N 38°02' E 015°35'7 6.9
2016-Jun-19 13:33N 37°55' E 015°37'7 7.1
2016-Jun-19 12:34N 37°51' E 015°45'8 7.5
2016-Jun-19 11:33N 37°50' E 015°55'  

Dump ship's entire track history